Domov               UVHVVR             MKGP            O straneh              
ZDRAVSTVENO VARSTVO RASTLIN
  MREŽA AGROMET. POSTAJ
 ► PROGNOSTIČNA OBVESTILA
AGROMETEOROLOŠKI PODATKI -
ARSO
OBVLADOVANJE TVEGANJ ZARADI
NEUGODNIH VREMENSKIH RAZMER
  ► NARAVNE NESREČE
  ► SUŠA/MOČA
  ► NAMAKANJE
  ► ŽLED (gozdarstvo)
KARTOGRAFSKI PRIKAZI
SPLETNE POVEZAVE
PROJEKTI IN PUBLIKACIJE

AGROMETEOROLOŠKA MREŽA: VREMENSKE POSTAJE IN FENOLOŠKA OPAZOVANJA

Pregled podatkov za lokacijo Podbrezje, meteorološka postaja 855704

Pregled senzorjev na lokaciji

ID Ime Zadnja
vrednost
Datum
zadnje
spremembe
Tip
senzorja
4023 Omočenost lista (U) 0 U 23.3.2019 11:30 A730WET
4024 Padavine (mm) 0 mm 23.3.2019 11:30 Rain-O-Matic
4022 Relativna vlaga 2 m (% RH) 35,2 % RH 23.3.2019 11:30 50YA
4021 Temperatura 2 m (°C) 14,91 °C 23.3.2019 11:30 50YA

Pregled podatkov zadnjih 24 ur

Zap.
št.
Datum in čas Podbrezje
Omočenost
lista
Padavine Relativna
vlaga
2
m
Temperatura
2
m
1 23.3.2019 11:00
2 23.3.2019 10:30 0 0 35,2 14,9
3 23.3.2019 10:00 0 0 40,6 13,6
4 23.3.2019 09:30 0 0 50,7 11,5
5 23.3.2019 09:00 0 0 56,2 9,6
6 23.3.2019 08:30 0 0 60,8 7,9
7 23.3.2019 08:00 0 0 69 5,6
8 23.3.2019 07:30 0 0 78,4 2,8
9 23.3.2019 07:00 1 0 82,9 1,2
10 23.3.2019 06:30 2 0 85,3 0,5
11 23.3.2019 06:00 2 0 84,4 0,7
12 23.3.2019 05:30 2 0 83 0,9
13 23.3.2019 05:00 2 0 82,3 1,2
14 23.3.2019 04:30 2 0 81,7 1,3
15 23.3.2019 04:00 2 0 79,1 2
16 23.3.2019 03:30 2 0 80,4 1,9
17 23.3.2019 03:00 1 0 80,9 1,8
18 23.3.2019 02:30 1 0 81,3 1,9
19 23.3.2019 02:00 1 0 80,9 1,9
20 23.3.2019 01:30 1 0 78,9 2,4
21 23.3.2019 01:00 0 0 78 2,9
22 23.3.2019 00:30 0 0 74,6 3,6
23 23.3.2019 00:00 0 0 72,4 4,2
24 22.3.2019 23:30 0 0 73 4,2
25 22.3.2019 23:00 0 0 71,7 4,6
26 22.3.2019 22:30 0 0 68,5 5,5
27 22.3.2019 22:00 0 0 66,7 6,1
28 22.3.2019 21:30 0 0 68,7 6,1
29 22.3.2019 21:00 0 0 65,9 6,9
30 22.3.2019 20:30 0 0 63,8 7,5
31 22.3.2019 20:00 0 0 58,1 8,9
32 22.3.2019 19:30 0 0 53,8 9,9
33 22.3.2019 19:00 0 0 51,8 10,8
34 22.3.2019 18:30 0 0 46,8 12,1
35 22.3.2019 18:00 0 0 39,2 13,9
36 22.3.2019 17:30 0 0 34 15,1
37 22.3.2019 17:00 0 0 34,8 15,3
38 22.3.2019 16:30 0 0 33,8 16
39 22.3.2019 16:00 0 0 34 15,7
40 22.3.2019 15:30 0 0 33,4 15,9
41 22.3.2019 15:00 0 0 32,3 15,8
42 22.3.2019 14:30 0 0 32,3 15,5
43 22.3.2019 14:00 0 0 32,8 15
44 22.3.2019 13:30 0 0 34 14,4
45 22.3.2019 13:00 0 0 33,9 13,7
46 22.3.2019 12:30 0 0 33,8 13,7
47 22.3.2019 12:00 0 0 36,1 12,8
48 22.3.2019 11:30 0 0 35,9 12,5
© 2011 Ministrstvo za kmetijstvo, gozdarstvo in prehrano. Vse pravice pridržane.